Time,TemperatureF,DewpointF,PressureIn,WindDirection,WindDirectionDegrees,WindSpeedMPH,WindSpeedGustMPH,Humidity,HourlyPrecipIn,Conditions,Clouds,dailyrainin,SoftwareType,DateUTC
2013-05-04 00:00:00,42.4,40.6,29.76,North,351,0.0,0.0,93,0.00,,,0.67,WeatherDisplay:10.36,2013-05-04 05:00:00,
2013-05-04 00:05:00,42.4,40.6,30.03,South,174,0.0,0.0,93,0.00,,,0.00,WeatherDisplay:10.36,2013-05-04 05:05:00,
2013-05-04 00:10:00,42.4,40.6,30.03,ENE,57,5.4,5.4,93,0.00,,,0.00,WeatherDisplay:10.36,2013-05-04 05:10:00,
2013-05-04 00:15:00,42.4,40.6,30.03,NE,49,5.8,5.8,93,0.00,,,0.00,WeatherDisplay:10.36,2013-05-04 05:15:00,
2013-05-04 00:20:00,42.4,40.6,29.76,NE,42,0.0,0.0,93,0.00,,,0.00,WeatherDisplay:10.36,2013-05-04 05:20:00,
2013-05-04 00:25:00,42.4,40.6,29.76,ENE,72,4.0,0.0,93,0.00,,,0.00,WeatherDisplay:10.36,2013-05-04 05:25:00,
2013-05-04 00:30:00,42.4,40.6,29.76,ENE,69,3.5,0.0,93,0.00,,,0.00,WeatherDisplay:10.36,2013-05-04 05:30:00,
2013-05-04 00:35:00,42.3,40.4,29.76,ENE,74,0.0,0.0,93,0.00,,,0.00,WeatherDisplay:10.36,2013-05-04 05:35:00,
2013-05-04 00:40:00,42.3,40.4,29.76,ESE,102,4.6,4.6,93,0.00,,,0.00,WeatherDisplay:10.36,2013-05-04 05:40:00,
2013-05-04 00:45:00,42.3,40.4,29.76,ENE,67,4.6,4.6,93,0.00,,,0.00,WeatherDisplay:10.36,2013-05-04 05:45:00,
2013-05-04 00:50:00,42.3,40.4,29.79,ENE,59,4.6,4.6,93,0.00,,,0.00,WeatherDisplay:10.36,2013-05-04 05:50:00,
2013-05-04 00:55:00,42.3,40.4,29.79,ENE,57,5.8,5.8,93,0.00,,,0.00,WeatherDisplay:10.36,2013-05-04 05:55:00,
2013-05-04 01:00:00,42.3,40.4,29.79,NE,55,6.3,6.3,93,0.00,,,0.00,WeatherDisplay:10.36,2013-05-04 06:00:00,
2013-05-04 01:05:00,42.1,40.2,29.79,NE,44,4.9,4.9,93,0.00,,,0.00,WeatherDisplay:10.36,2013-05-04 06:05:00,
2013-05-04 01:10:00,42.1,40.2,29.79,ESE,106,6.9,6.9,93,0.00,,,0.00,WeatherDisplay:10.36,2013-05-04 06:10:00,
2013-05-04 01:15:00,41.9,40.0,29.79,ESE,121,6.7,6.7,93,0.00,,,0.00,WeatherDisplay:10.36,2013-05-04 06:15:00,
2013-05-04 01:20:00,41.7,39.8,29.79,NE,43,5.8,5.8,93,0.00,,,0.00,WeatherDisplay:10.36,2013-05-04 06:20:00,
2013-05-04 01:25:00,41.5,39.7,29.79,NE,51,6.9,6.9,93,0.00,,,0.00,WeatherDisplay:10.36,2013-05-04 06:25:00,
2013-05-04 01:30:00,41.5,39.7,29.79,East,87,4.9,4.9,93,0.00,,,0.00,WeatherDisplay:10.36,2013-05-04 06:30:00,
2013-05-04 01:35:00,41.4,39.5,29.79,East,88,5.8,5.8,93,0.00,,,0.00,WeatherDisplay:10.36,2013-05-04 06:35:00,
2013-05-04 01:40:00,41.4,39.5,29.79,East,93,5.8,5.8,93,0.00,,,0.00,WeatherDisplay:10.36,2013-05-04 06:40:00,
2013-05-04 01:45:00,41.2,39.3,29.79,East,90,4.9,4.9,93,0.00,,,0.00,WeatherDisplay:10.36,2013-05-04 06:45:00,
2013-05-04 01:50:00,41.2,39.3,29.76,NE,49,4.6,4.6,93,0.00,,,0.00,WeatherDisplay:10.36,2013-05-04 06:50:00,
2013-05-04 01:55:00,41.2,39.3,29.76,East,80,3.5,0.0,93,0.00,,,0.00,WeatherDisplay:10.36,2013-05-04 06:55:00,
2013-05-04 02:00:00,41.2,39.3,29.76,NE,48,0.0,0.0,93,0.00,,,0.00,WeatherDisplay:10.36,2013-05-04 07:00:00,
2013-05-04 02:05:00,41.2,39.3,29.76,NE,50,4.6,4.6,93,0.00,,,0.00,WeatherDisplay:10.36,2013-05-04 07:05:00,
2013-05-04 02:10:00,41.2,39.3,29.76,NE,46,5.8,5.8,93,0.00,,,0.00,WeatherDisplay:10.36,2013-05-04 07:10:00,
2013-05-04 02:15:00,41.2,39.3,29.76,NE,52,5.8,5.8,93,0.00,,,0.00,WeatherDisplay:10.36,2013-05-04 07:15:00,
2013-05-04 02:20:00,41.2,39.3,29.76,NE,52,4.6,4.6,93,0.00,,,0.00,WeatherDisplay:10.36,2013-05-04 07:20:00,
2013-05-04 02:25:00,41.2,39.3,29.76,ENE,71,4.6,4.6,93,0.00,,,0.00,WeatherDisplay:10.36,2013-05-04 07:25:00,
2013-05-04 02:30:00,41.2,39.6,29.76,NE,45,5.4,5.4,94,0.00,,,0.00,WeatherDisplay:10.36,2013-05-04 07:30:00,
2013-05-04 02:35:00,41.0,39.1,29.79,ESE,106,6.9,6.9,93,0.00,,,0.00,WeatherDisplay:10.36,2013-05-04 07:35:00,
2013-05-04 02:40:00,41.0,39.1,29.79,NE,54,5.8,5.8,93,0.00,,,0.00,WeatherDisplay:10.36,2013-05-04 07:40:00,
2013-05-04 02:45:00,40.8,39.0,29.79,NE,50,4.0,4.0,93,0.00,,,0.00,WeatherDisplay:10.36,2013-05-04 07:45:00,
2013-05-04 02:50:00,40.8,39.0,29.76,NE,56,3.6,3.6,93,0.00,,,0.00,WeatherDisplay:10.36,2013-05-04 07:50:00,
2013-05-04 02:55:00,41.0,39.4,29.76,SSE,156,5.8,5.8,94,0.00,,,0.00,WeatherDisplay:10.36,2013-05-04 07:55:00,
2013-05-04 03:00:00,40.8,39.2,29.76,ENE,72,6.3,6.3,94,0.00,,,0.00,WeatherDisplay:10.36,2013-05-04 08:00:00,
2013-05-04 03:05:00,40.8,39.2,29.79,NE,44,6.9,6.9,94,0.00,,,0.00,WeatherDisplay:10.36,2013-05-04 08:05:00,
2013-05-04 03:10:00,40.6,38.8,29.79,ESE,103,5.8,5.8,93,0.00,,,0.00,WeatherDisplay:10.36,2013-05-04 08:10:00,
2013-05-04 03:15:00,40.6,38.8,29.79,NE,37,3.5,0.0,93,0.00,,,0.00,WeatherDisplay:10.36,2013-05-04 08:15:00,
2013-05-04 03:20:00,40.5,38.6,29.79,ESE,109,6.9,6.9,93,0.00,,,0.00,WeatherDisplay:10.36,2013-05-04 08:20:00,
2013-05-04 03:25:00,40.5,38.6,29.79,NE,54,6.7,6.7,93,0.00,,,0.00,WeatherDisplay:10.36,2013-05-04 08:25:00,
2013-05-04 03:30:00,40.5,38.6,29.79,NE,42,5.8,5.8,93,0.00,,,0.00,WeatherDisplay:10.36,2013-05-04 08:30:00,
2013-05-04 03:35:00,40.5,38.6,29.79,ENE,62,5.8,5.8,93,0.00,,,0.00,WeatherDisplay:10.36,2013-05-04 08:35:00,
2013-05-04 03:40:00,40.3,38.4,29.79,NE,52,6.7,6.7,93,0.00,,,0.00,WeatherDisplay:10.36,2013-05-04 08:40:00,
2013-05-04 03:45:00,40.5,38.9,29.79,NE,56,5.8,5.8,94,0.00,,,0.00,WeatherDisplay:10.36,2013-05-04 08:45:00,
2013-05-04 03:50:00,40.3,38.7,29.79,NE,54,4.0,4.0,94,0.00,,,0.00,WeatherDisplay:10.36,2013-05-04 08:50:00,
2013-05-04 03:55:00,40.3,38.7,29.79,NE,42,5.4,5.4,94,0.00,,,0.00,WeatherDisplay:10.36,2013-05-04 08:55:00,
2013-05-04 04:00:00,40.3,38.7,29.79,NE,56,4.6,4.6,94,0.00,,,0.00,WeatherDisplay:10.36,2013-05-04 09:00:00,
2013-05-04 04:05:00,40.3,38.7,29.82,East,91,4.9,4.9,94,0.00,,,0.00,WeatherDisplay:10.36,2013-05-04 09:05:00,
2013-05-04 04:10:00,40.3,38.7,29.82,NE,41,4.6,4.6,94,0.00,,,0.00,WeatherDisplay:10.36,2013-05-04 09:10:00,
2013-05-04 04:15:00,40.3,38.7,29.82,ESE,112,4.6,4.6,94,0.00,,,0.00,WeatherDisplay:10.36,2013-05-04 09:15:00,
2013-05-04 04:20:00,40.3,38.7,29.82,SE,143,5.8,5.8,94,0.00,,,0.00,WeatherDisplay:10.36,2013-05-04 09:20:00,
2013-05-04 04:25:00,40.3,38.7,29.82,NE,53,6.3,6.3,94,0.00,,,0.00,WeatherDisplay:10.36,2013-05-04 09:25:00,
2013-05-04 04:30:00,40.1,38.5,29.82,ENE,67,5.8,5.8,94,0.00,,,0.00,WeatherDisplay:10.36,2013-05-04 09:30:00,
2013-05-04 04:35:00,39.9,38.3,29.82,NE,46,4.6,4.6,94,0.00,,,0.00,WeatherDisplay:10.36,2013-05-04 09:35:00,
2013-05-04 04:40:00,39.9,38.3,29.82,ESE,112,5.8,5.8,94,0.00,,,0.00,WeatherDisplay:10.36,2013-05-04 09:40:00,
2013-05-04 04:45:00,39.9,38.3,29.82,South,169,8.1,8.1,94,0.00,,,0.00,WeatherDisplay:10.36,2013-05-04 09:45:00,
2013-05-04 04:50:00,39.9,38.3,29.82,ENE,77,4.5,0.0,94,0.00,,,0.00,WeatherDisplay:10.36,2013-05-04 09:50:00,
2013-05-04 04:55:00,39.7,38.2,29.82,NE,53,3.6,3.6,94,0.00,,,0.00,WeatherDisplay:10.36,2013-05-04 09:55:00,
2013-05-04 05:00:00,39.7,38.2,29.82,East,89,5.8,5.8,94,0.00,,,0.00,WeatherDisplay:10.36,2013-05-04 10:00:00,
2013-05-04 05:05:00,39.7,38.2,29.82,ENE,60,4.0,4.0,94,0.00,,,0.00,WeatherDisplay:10.36,2013-05-04 10:05:00,
2013-05-04 05:10:00,39.9,38.3,29.82,East,85,3.6,3.6,94,0.00,,,0.00,WeatherDisplay:10.36,2013-05-04 10:10:00,
2013-05-04 05:16:00,39.9,38.3,29.82,East,85,3.6,3.6,94,0.00,,,0.00,WeatherDisplay:10.36,2013-05-04 10:16:00,
2013-05-04 05:21:00,39.9,38.3,29.82,East,100,4.0,0.0,94,0.00,,,0.00,WeatherDisplay:10.36,2013-05-04 10:21:00,
2013-05-04 05:26:00,39.9,38.3,29.82,NE,54,0.0,0.0,94,0.00,,,0.00,WeatherDisplay:10.36,2013-05-04 10:26:00,
2013-05-04 05:31:00,39.9,38.3,29.82,ENE,66,0.0,0.0,94,0.00,,,0.00,WeatherDisplay:10.36,2013-05-04 10:31:00,
2013-05-04 05:37:00,39.9,38.3,29.82,ENE,66,0.0,0.0,94,0.00,,,0.00,WeatherDisplay:10.36,2013-05-04 10:37:00,
2013-05-04 05:42:00,39.9,38.3,29.82,ENE,67,0.0,0.0,94,0.00,,,0.00,WeatherDisplay:10.36,2013-05-04 10:42:00,
2013-05-04 05:47:00,39.7,38.2,29.82,ENE,68,0.0,0.0,94,0.00,,,0.00,WeatherDisplay:10.36,2013-05-04 10:47:00,
2013-05-04 05:52:00,39.7,38.2,29.82,ENE,62,0.0,0.0,94,0.00,,,0.00,WeatherDisplay:10.36,2013-05-04 10:52:00,
2013-05-04 05:57:00,39.7,38.2,29.82,ENE,69,0.0,0.0,94,0.00,,,0.00,WeatherDisplay:10.36,2013-05-04 10:57:00,
2013-05-04 05:59:00,39.4,37.8,29.82,ENE,73,4.5,4.5,94,0.00,,,0.00,WeatherDisplay:10.36,2013-05-04 10:59:00,
2013-05-04 06:02:00,39.4,37.8,29.82,ENE,73,4.5,4.5,94,0.00,,,0.00,WeatherDisplay:10.36,2013-05-04 11:02:00,
2013-05-04 06:07:00,39.4,37.8,29.82,ENE,73,4.5,4.5,94,0.00,,,0.00,WeatherDisplay:10.36,2013-05-04 11:07:00,
2013-05-04 06:12:00,39.4,37.8,29.82,SSE,150,4.9,4.9,94,0.00,,,0.00,WeatherDisplay:10.36,2013-05-04 11:12:00,
2013-05-04 06:17:00,39.4,37.8,29.82,SSE,150,4.9,4.9,94,0.00,,,0.00,WeatherDisplay:10.36,2013-05-04 11:17:00,
2013-05-04 06:22:00,39.4,37.8,29.85,SE,138,5.4,5.4,94,0.00,,,0.00,WeatherDisplay:10.36,2013-05-04 11:22:00,
2013-05-04 06:27:00,39.6,38.0,29.85,East,83,3.6,0.0,94,0.00,,,0.00,WeatherDisplay:10.36,2013-05-04 11:27:00,
2013-05-04 06:32:00,39.7,38.2,29.85,East,88,5.8,5.8,94,0.00,,,0.00,WeatherDisplay:10.36,2013-05-04 11:32:00,
2013-05-04 06:38:00,39.7,38.2,29.85,East,85,5.4,5.4,94,0.00,,,0.00,WeatherDisplay:10.36,2013-05-04 11:38:00,
2013-05-04 06:43:00,39.7,38.2,29.85,ENE,77,4.6,4.6,94,0.00,,,0.00,WeatherDisplay:10.36,2013-05-04 11:43:00,
2013-05-04 06:48:00,39.7,38.2,29.85,NE,48,0.0,0.0,94,0.00,,,0.00,WeatherDisplay:10.36,2013-05-04 11:48:00,
2013-05-04 06:54:00,39.7,38.2,29.85,ENE,67,3.5,3.5,94,0.00,,,0.00,WeatherDisplay:10.36,2013-05-04 11:54:00,
2013-05-04 06:59:00,39.9,38.3,29.85,ENE,61,3.5,0.0,94,0.00,,,0.00,WeatherDisplay:10.36,2013-05-04 11:59:00,
2013-05-04 07:05:00,39.9,38.3,29.85,East,95,4.0,4.0,94,0.00,,,0.00,WeatherDisplay:10.36,2013-05-04 12:05:00,
2013-05-04 07:10:00,40.3,38.7,29.88,NE,53,4.6,0.0,94,0.00,,,0.00,WeatherDisplay:10.36,2013-05-04 12:10:00,
2013-05-04 07:16:00,40.3,38.7,29.88,NE,49,4.0,0.0,94,0.00,,,0.00,WeatherDisplay:10.36,2013-05-04 12:16:00,
2013-05-04 07:21:00,40.5,38.9,29.88,East,82,0.0,0.0,94,0.00,,,0.00,WeatherDisplay:10.36,2013-05-04 12:21:00,
2013-05-04 07:26:00,40.6,39.0,29.88,NE,48,3.6,3.6,94,0.00,,,0.00,WeatherDisplay:10.36,2013-05-04 12:26:00,
2013-05-04 07:31:00,40.6,39.0,29.88,NE,52,0.0,0.0,94,0.00,,,0.00,WeatherDisplay:10.36,2013-05-04 12:31:00,
2013-05-04 07:36:00,41.0,39.4,29.88,East,80,4.6,4.6,94,0.00,,,0.00,WeatherDisplay:10.36,2013-05-04 12:36:00,
2013-05-04 07:41:00,41.2,39.6,29.88,ENE,61,0.0,0.0,94,0.00,,,0.00,WeatherDisplay:10.36,2013-05-04 12:41:00,
2013-05-04 07:46:00,41.2,39.6,29.88,East,83,0.0,0.0,94,0.00,,,0.00,WeatherDisplay:10.36,2013-05-04 12:46:00,
2013-05-04 07:51:00,41.4,39.8,29.88,ENE,68,4.0,4.0,94,0.00,,,0.00,WeatherDisplay:10.36,2013-05-04 12:51:00,
2013-05-04 07:56:00,41.4,39.8,29.88,ENE,61,0.0,0.0,94,0.00,,,0.00,WeatherDisplay:10.36,2013-05-04 12:56:00,
2013-05-04 08:01:00,41.5,39.9,29.88,NE,53,4.9,4.9,94,0.00,,,0.00,WeatherDisplay:10.36,2013-05-04 13:01:00,
2013-05-04 08:06:00,41.7,40.1,29.88,East,94,3.6,3.6,94,0.00,,,0.00,WeatherDisplay:10.36,2013-05-04 13:06:00,
2013-05-04 08:11:00,41.7,40.1,29.88,East,88,4.9,4.9,94,0.00,,,0.00,WeatherDisplay:10.36,2013-05-04 13:11:00,
2013-05-04 08:16:00,41.7,40.1,29.88,NE,49,0.0,0.0,94,0.00,,,0.00,WeatherDisplay:10.36,2013-05-04 13:16:00,
2013-05-04 08:21:00,42.1,40.5,29.88,NE,53,0.0,0.0,94,0.00,,,0.00,WeatherDisplay:10.36,2013-05-04 13:21:00,
2013-05-04 08:26:00,42.3,40.7,29.88,SE,125,0.0,0.0,94,0.00,,,0.00,WeatherDisplay:10.36,2013-05-04 13:26:00,
2013-05-04 08:31:00,42.4,40.8,29.88,ENE,58,0.0,0.0,94,0.00,,,0.00,WeatherDisplay:10.36,2013-05-04 13:31:00,
2013-05-04 08:36:00,42.4,40.8,29.91,ENE,65,0.0,0.0,94,0.00,,,0.00,WeatherDisplay:10.36,2013-05-04 13:36:00,
2013-05-04 08:41:00,42.3,40.4,29.91,ENE,60,0.0,0.0,93,0.00,,,0.00,WeatherDisplay:10.36,2013-05-04 13:41:00,
2013-05-04 08:46:00,42.4,40.8,29.91,ENE,59,4.0,4.0,94,0.00,,,0.00,WeatherDisplay:10.36,2013-05-04 13:46:00,
2013-05-04 08:51:00,42.8,41.2,29.91,East,98,4.6,4.6,94,0.00,,,0.00,WeatherDisplay:10.36,2013-05-04 13:51:00,
2013-05-04 08:56:00,42.8,41.2,29.91,SSE,152,5.8,5.8,94,0.00,,,0.00,WeatherDisplay:10.36,2013-05-04 13:56:00,
2013-05-04 09:01:00,43.3,41.7,29.91,NE,56,0.0,0.0,94,0.00,,,0.00,WeatherDisplay:10.36,2013-05-04 14:01:00,
2013-05-04 09:06:00,43.9,42.3,29.91,East,89,0.0,0.0,94,0.00,,,0.00,WeatherDisplay:10.36,2013-05-04 14:06:00,
2013-05-04 09:11:00,44.1,42.4,29.91,ENE,72,3.5,0.0,94,0.00,,,0.00,WeatherDisplay:10.36,2013-05-04 14:11:00,
2013-05-04 09:17:00,44.1,42.2,29.91,ENE,73,3.5,3.5,93,0.00,,,0.00,WeatherDisplay:10.36,2013-05-04 14:17:00,
2013-05-04 09:22:00,44.1,42.2,29.91,NE,53,4.0,4.0,93,0.00,,,0.00,WeatherDisplay:10.36,2013-05-04 14:22:00,
2013-05-04 09:27:00,44.1,42.2,29.91,NE,47,0.0,0.0,93,0.00,,,0.00,WeatherDisplay:10.36,2013-05-04 14:27:00,
2013-05-04 09:32:00,44.2,42.3,29.91,East,95,4.0,4.0,93,0.00,,,0.00,WeatherDisplay:10.36,2013-05-04 14:32:00,
2013-05-04 09:37:00,44.6,42.7,29.91,ENE,70,4.9,4.9,93,0.00,,,0.00,WeatherDisplay:10.36,2013-05-04 14:37:00,
2013-05-04 09:42:00,44.8,42.9,29.91,ENE,78,3.5,3.5,93,0.00,,,0.00,WeatherDisplay:10.36,2013-05-04 14:42:00,
2013-05-04 09:47:00,45.3,43.7,29.91,East,87,4.0,4.0,94,0.00,,,0.00,WeatherDisplay:10.36,2013-05-04 14:47:00,
2013-05-04 09:52:00,45.7,43.8,29.91,ENE,60,0.0,0.0,93,0.00,,,0.00,WeatherDisplay:10.36,2013-05-04 14:52:00,
2013-05-04 09:57:00,45.9,44.0,29.91,ENE,63,4.9,4.9,93,0.00,,,0.00,WeatherDisplay:10.36,2013-05-04 14:57:00,
2013-05-04 10:02:00,45.9,44.0,29.91,NE,54,0.0,2.7,93,0.00,,,0.00,WeatherDisplay:10.36,2013-05-04 15:02:00,
2013-05-04 10:07:00,46.0,44.1,29.91,ENE,74,0.0,0.0,93,0.00,,,0.00,WeatherDisplay:10.36,2013-05-04 15:07:00,
2013-05-04 10:12:00,45.9,44.0,29.91,ENE,64,3.6,3.6,93,0.00,,,0.00,WeatherDisplay:10.36,2013-05-04 15:12:00,
2013-05-04 10:17:00,45.9,44.0,29.91,NNE,31,0.0,0.0,93,0.00,,,0.00,WeatherDisplay:10.36,2013-05-04 15:17:00,
2013-05-04 10:22:00,45.9,43.7,29.91,NNE,30,0.0,0.0,92,0.00,,,0.00,WeatherDisplay:10.36,2013-05-04 15:22:00,
2013-05-04 10:27:00,45.9,43.7,29.91,NNE,27,3.1,0.0,92,0.00,,,0.00,WeatherDisplay:10.36,2013-05-04 15:27:00,
2013-05-04 10:32:00,45.5,43.0,29.91,North,351,0.0,2.7,91,0.00,,,0.00,WeatherDisplay:10.36,2013-05-04 15:32:00,
2013-05-04 10:37:00,45.5,43.0,30.70,North,351,0.0,0.0,91,0.00,,,0.00,WeatherDisplay:10.36,2013-05-04 15:37:00,
2013-05-04 10:42:00,45.9,43.1,30.70,North,351,0.0,0.0,90,0.00,,,0.00,WeatherDisplay:10.36,2013-05-04 15:42:00,
2013-05-04 10:47:00,45.9,43.1,30.74,North,351,0.0,0.0,90,0.00,,,0.00,WeatherDisplay:10.36,2013-05-04 15:47:00,
2013-05-04 10:52:00,45.9,43.1,30.74,North,351,0.0,0.0,90,0.00,,,0.00,WeatherDisplay:10.36,2013-05-04 15:52:00,
2013-05-04 10:57:00,45.9,42.8,30.74,NNE,28,3.5,3.5,89,0.00,,,0.00,WeatherDisplay:10.36,2013-05-04 15:57:00,
2013-05-04 11:02:00,45.9,42.8,30.74,NNE,28,0.0,0.0,89,0.00,,,0.00,WeatherDisplay:10.36,2013-05-04 16:02:00,
2013-05-04 11:07:00,45.9,42.8,29.91,NNE,29,0.0,0.0,89,0.00,,,0.00,WeatherDisplay:10.36,2013-05-04 16:07:00,
2013-05-04 11:12:00,45.5,42.2,29.91,North,351,4.5,0.0,88,0.00,,,0.00,WeatherDisplay:10.36,2013-05-04 16:12:00,
2013-05-04 11:17:00,45.3,41.7,29.91,North,351,0.0,0.0,87,0.00,,,0.00,WeatherDisplay:10.36,2013-05-04 16:17:00,
2013-05-04 11:22:00,45.5,41.6,30.74,NNE,28,0.0,0.0,86,0.00,,,0.00,WeatherDisplay:10.36,2013-05-04 16:22:00,
2013-05-04 11:27:00,46.0,42.1,30.74,NNE,27,0.0,0.0,86,0.00,,,0.00,WeatherDisplay:10.36,2013-05-04 16:27:00,
2013-05-04 11:32:00,46.4,42.1,30.74,NNE,27,4.0,0.0,85,0.00,,,0.00,WeatherDisplay:10.36,2013-05-04 16:32:00,
2013-05-04 11:37:00,46.6,42.3,29.91,NNE,27,0.0,0.0,85,0.00,,,0.00,WeatherDisplay:10.36,2013-05-04 16:37:00,
2013-05-04 11:42:00,46.9,42.4,29.91,NNE,33,0.0,0.0,84,0.00,,,0.00,WeatherDisplay:10.36,2013-05-04 16:42:00,
2013-05-04 11:47:00,47.3,42.7,29.91,East,99,4.5,4.5,84,0.00,,,0.00,WeatherDisplay:10.36,2013-05-04 16:47:00,
2013-05-04 11:52:00,47.7,43.1,29.91,ENE,63,4.5,4.5,84,0.00,,,0.00,WeatherDisplay:10.36,2013-05-04 16:52:00,
2013-05-04 11:57:00,47.8,42.9,29.91,ENE,60,0.0,0.0,83,0.00,,,0.00,WeatherDisplay:10.36,2013-05-04 16:57:00,
2013-05-04 12:02:00,48.0,43.1,29.91,NE,47,3.6,3.6,83,0.00,,,0.00,WeatherDisplay:10.36,2013-05-04 17:02:00,
2013-05-04 12:07:00,48.4,43.1,29.91,East,83,0.0,0.0,82,0.00,,,0.00,WeatherDisplay:10.36,2013-05-04 17:07:00,
2013-05-04 12:12:00,48.2,42.6,29.91,North,351,0.0,3.6,81,0.00,,,0.00,WeatherDisplay:10.36,2013-05-04 17:12:00,
2013-05-04 12:17:00,47.8,41.0,29.91,North,351,0.0,0.0,77,0.00,,,0.00,WeatherDisplay:10.36,2013-05-04 17:17:00,
2013-05-04 12:22:00,47.7,40.8,30.74,North,351,0.0,0.0,77,0.00,,,0.00,WeatherDisplay:10.36,2013-05-04 17:22:00,
2013-05-04 12:27:00,47.5,39.9,30.74,North,351,0.0,0.0,75,0.00,,,0.00,WeatherDisplay:10.36,2013-05-04 17:27:00,
2013-05-04 12:32:00,47.5,39.9,29.91,NE,35,4.6,4.6,75,0.00,,,0.00,WeatherDisplay:10.36,2013-05-04 17:32:00,
2013-05-04 12:37:00,47.5,39.9,29.91,NE,39,0.0,0.0,75,0.00,,,0.00,WeatherDisplay:10.36,2013-05-04 17:37:00,
2013-05-04 12:42:00,47.5,39.6,29.91,NE,38,0.0,0.0,74,0.00,,,0.00,WeatherDisplay:10.36,2013-05-04 17:42:00,
2013-05-04 12:47:00,47.5,39.6,29.91,NNE,33,0.0,0.0,74,0.00,,,0.00,WeatherDisplay:10.36,2013-05-04 17:47:00,
2013-05-04 12:52:00,47.7,39.4,29.91,NE,37,0.0,0.0,73,0.00,,,0.00,WeatherDisplay:10.36,2013-05-04 17:52:00,
2013-05-04 12:57:00,47.8,40.0,29.91,NE,37,0.0,0.0,74,0.00,,,0.00,WeatherDisplay:10.36,2013-05-04 17:57:00,
2013-05-04 13:02:00,48.2,40.3,29.91,NE,43,0.0,0.0,74,0.00,,,0.00,WeatherDisplay:10.36,2013-05-04 18:02:00,
2013-05-04 13:07:00,48.4,40.5,29.91,NE,54,4.0,4.0,74,0.00,,,0.00,WeatherDisplay:10.36,2013-05-04 18:07:00,
2013-05-04 13:12:00,48.6,40.6,29.91,NE,53,0.0,0.0,74,0.00,,,0.00,WeatherDisplay:10.36,2013-05-04 18:12:00,
2013-05-04 13:17:00,48.6,40.3,29.91,NE,53,0.0,0.0,73,0.00,,,0.00,WeatherDisplay:10.36,2013-05-04 18:17:00,
2013-05-04 13:22:00,48.6,40.3,29.91,NE,53,0.0,0.0,73,0.00,,,0.00,WeatherDisplay:10.36,2013-05-04 18:22:00,
2013-05-04 13:27:00,48.7,40.8,29.91,East,90,0.0,0.0,74,0.00,,,0.00,WeatherDisplay:10.36,2013-05-04 18:27:00,
2013-05-04 13:32:00,48.6,40.3,29.91,ENE,69,0.0,0.0,73,0.00,,,0.00,WeatherDisplay:10.36,2013-05-04 18:32:00,
2013-05-04 13:37:00,48.4,40.1,29.91,ENE,71,0.0,0.0,73,0.00,,,0.00,WeatherDisplay:10.36,2013-05-04 18:37:00,
2013-05-04 13:42:00,48.2,39.9,29.91,ENE,69,0.0,0.0,73,0.00,,,0.00,WeatherDisplay:10.36,2013-05-04 18:42:00,
2013-05-04 13:47:00,48.4,40.1,29.91,East,98,0.0,0.0,73,0.00,,,0.00,WeatherDisplay:10.36,2013-05-04 18:47:00,
2013-05-04 13:52:00,48.6,40.3,29.91,East,89,0.0,0.0,73,0.00,,,0.00,WeatherDisplay:10.36,2013-05-04 18:52:00,
2013-05-04 13:57:00,48.4,40.1,29.91,East,81,0.0,0.0,73,0.00,,,0.00,WeatherDisplay:10.36,2013-05-04 18:57:00,
2013-05-04 14:02:00,48.4,40.1,29.91,ENE,76,0.0,0.0,73,0.00,,,0.00,WeatherDisplay:10.36,2013-05-04 19:02:00,
2013-05-04 14:07:00,48.6,40.3,29.94,East,85,0.0,0.0,73,0.00,,,0.00,WeatherDisplay:10.36,2013-05-04 19:07:00,
2013-05-04 14:12:00,48.6,40.3,29.94,East,83,0.0,0.0,73,0.00,,,0.00,WeatherDisplay:10.36,2013-05-04 19:12:00,
2013-05-04 14:17:00,48.6,40.3,29.94,East,87,0.0,0.0,73,0.00,,,0.00,WeatherDisplay:10.36,2013-05-04 19:17:00,
2013-05-04 14:22:00,48.6,40.3,29.91,NNE,27,4.0,4.0,73,0.00,,,0.00,WeatherDisplay:10.36,2013-05-04 19:22:00,
2013-05-04 14:27:00,48.2,39.9,29.91,NNE,27,0.0,0.0,73,0.00,,,0.00,WeatherDisplay:10.36,2013-05-04 19:27:00,
2013-05-04 14:32:00,48.2,39.9,29.91,NNE,27,0.0,0.0,73,0.00,,,0.00,WeatherDisplay:10.36,2013-05-04 19:32:00,
2013-05-04 14:37:00,48.4,40.1,29.91,NNE,27,0.0,0.0,73,0.00,,,0.00,WeatherDisplay:10.36,2013-05-04 19:37:00,
2013-05-04 14:42:00,48.7,40.8,29.91,NNE,27,0.0,0.0,74,0.00,,,0.00,WeatherDisplay:10.36,2013-05-04 19:42:00,
2013-05-04 14:47:00,48.7,40.8,29.91,NNE,27,0.0,0.0,74,0.00,,,0.00,WeatherDisplay:10.36,2013-05-04 19:47:00,
2013-05-04 14:52:00,48.9,41.0,29.91,NNE,27,0.0,0.0,74,0.00,,,0.00,WeatherDisplay:10.36,2013-05-04 19:52:00,
2013-05-04 14:57:00,48.9,41.0,29.91,NNE,27,0.0,0.0,74,0.00,,,0.00,WeatherDisplay:10.36,2013-05-04 19:57:00,
2013-05-04 15:02:00,49.1,40.8,29.91,NNE,27,0.0,0.0,73,0.00,,,0.00,WeatherDisplay:10.36,2013-05-04 20:02:00,
2013-05-04 15:07:00,49.1,40.8,29.94,NNE,27,0.0,0.0,73,0.00,,,0.00,WeatherDisplay:10.36,2013-05-04 20:07:00,
2013-05-04 15:12:00,48.9,40.6,29.94,NNE,27,0.0,0.0,73,0.00,,,0.00,WeatherDisplay:10.36,2013-05-04 20:12:00,
2013-05-04 15:17:00,49.3,41.0,29.94,NNE,27,0.0,0.0,73,0.00,,,0.00,WeatherDisplay:10.36,2013-05-04 20:17:00,
2013-05-04 15:22:00,49.5,41.2,29.91,NNE,27,0.0,0.0,73,0.00,,,0.00,WeatherDisplay:10.36,2013-05-04 20:22:00,
2013-05-04 15:27:00,49.5,41.2,29.91,NNE,27,0.0,0.0,73,0.00,,,0.00,WeatherDisplay:10.36,2013-05-04 20:27:00,
2013-05-04 15:32:00,49.6,41.3,29.91,NNE,27,0.0,0.0,73,0.00,,,0.00,WeatherDisplay:10.36,2013-05-04 20:32:00,
2013-05-04 15:37:00,49.8,41.5,29.91,NNE,27,0.0,0.0,73,0.00,,,0.00,WeatherDisplay:10.36,2013-05-04 20:37:00,
2013-05-04 15:42:00,49.5,41.2,29.91,NNE,27,0.0,0.0,73,0.00,,,0.00,WeatherDisplay:10.36,2013-05-04 20:42:00,
2013-05-04 15:47:00,49.5,41.2,29.91,NNE,27,0.0,0.0,73,0.00,,,0.00,WeatherDisplay:10.36,2013-05-04 20:47:00,
2013-05-04 15:52:00,49.5,41.2,29.91,NNE,27,0.0,0.0,73,0.00,,,0.00,WeatherDisplay:10.36,2013-05-04 20:52:00,
2013-05-04 15:57:00,49.5,41.2,29.91,NNE,27,0.0,0.0,73,0.00,,,0.00,WeatherDisplay:10.36,2013-05-04 20:57:00,
2013-05-04 16:02:00,49.5,41.2,29.91,NNE,27,0.0,0.0,73,0.00,,,0.00,WeatherDisplay:10.36,2013-05-04 21:02:00,
2013-05-04 16:07:00,49.6,41.7,29.91,NNE,27,0.0,0.0,74,0.00,,,0.00,WeatherDisplay:10.36,2013-05-04 21:07:00,
2013-05-04 16:12:00,49.5,41.5,29.91,NNE,27,0.0,0.0,74,0.00,,,0.00,WeatherDisplay:10.36,2013-05-04 21:12:00,
2013-05-04 16:17:00,49.5,41.5,29.91,NNE,27,0.0,0.0,74,0.00,,,0.00,WeatherDisplay:10.36,2013-05-04 21:17:00,
2013-05-04 16:22:00,49.5,41.5,29.91,NNE,27,0.0,0.0,74,0.00,,,0.00,WeatherDisplay:10.36,2013-05-04 21:22:00,
2013-05-04 16:27:00,49.1,40.8,29.91,NNE,27,0.0,0.0,73,0.00,,,0.00,WeatherDisplay:10.36,2013-05-04 21:27:00,
2013-05-04 16:32:00,49.1,41.2,29.91,NNE,27,0.0,0.0,74,0.00,,,0.00,WeatherDisplay:10.36,2013-05-04 21:32:00,
2013-05-04 16:37:00,49.1,41.2,29.91,NNE,27,0.0,0.0,74,0.00,,,0.00,WeatherDisplay:10.36,2013-05-04 21:37:00,
2013-05-04 16:42:00,49.1,41.2,29.91,NNE,27,0.0,0.0,74,0.00,,,0.00,WeatherDisplay:10.36,2013-05-04 21:42:00,
2013-05-04 16:47:00,49.3,41.3,29.91,NNE,27,0.0,0.0,74,0.00,,,0.00,WeatherDisplay:10.36,2013-05-04 21:47:00,
2013-05-04 16:52:00,49.5,41.9,29.91,NNE,27,0.0,0.0,75,0.00,,,0.00,WeatherDisplay:10.36,2013-05-04 21:52:00,
2013-05-04 16:57:00,49.6,42.0,29.91,NNE,27,0.0,0.0,75,0.00,,,0.00,WeatherDisplay:10.36,2013-05-04 21:57:00,
2013-05-04 17:02:00,49.6,42.0,29.91,NNE,27,0.0,0.0,75,0.00,,,0.00,WeatherDisplay:10.36,2013-05-04 22:02:00,
2013-05-04 17:07:00,49.6,42.0,29.94,NNE,27,0.0,0.0,75,0.00,,,0.00,WeatherDisplay:10.36,2013-05-04 22:07:00,
2013-05-04 17:12:00,49.6,42.0,29.94,NNE,28,0.0,0.0,75,0.00,,,0.00,WeatherDisplay:10.36,2013-05-04 22:12:00,
2013-05-04 17:17:00,49.6,42.0,29.94,NNE,27,0.0,0.0,75,0.00,,,0.00,WeatherDisplay:10.36,2013-05-04 22:17:00,
2013-05-04 17:22:00,49.6,42.0,29.94,NNE,27,0.0,0.0,75,0.00,,,0.00,WeatherDisplay:10.36,2013-05-04 22:22:00,
2013-05-04 17:27:00,49.6,42.0,29.94,East,84,0.0,0.0,75,0.00,,,0.00,WeatherDisplay:10.36,2013-05-04 22:27:00,
2013-05-04 17:32:00,49.6,42.4,29.94,ENE,68,0.0,0.0,76,0.00,,,0.00,WeatherDisplay:10.36,2013-05-04 22:32:00,
2013-05-04 17:37:00,49.6,42.4,29.94,NE,49,0.0,0.0,76,0.00,,,0.00,WeatherDisplay:10.36,2013-05-04 22:37:00,
2013-05-04 17:42:00,49.6,42.4,29.94,East,91,0.0,0.0,76,0.00,,,0.00,WeatherDisplay:10.36,2013-05-04 22:42:00,
2013-05-04 17:47:00,49.6,42.4,29.94,ENE,63,0.0,0.0,76,0.00,,,0.00,WeatherDisplay:10.36,2013-05-04 22:47:00,
2013-05-04 17:52:00,49.5,42.2,29.94,NE,46,0.0,0.0,76,0.00,,,0.00,WeatherDisplay:10.36,2013-05-04 22:52:00,
2013-05-04 17:57:00,49.6,42.4,29.94,ENE,78,0.0,0.0,76,0.00,,,0.00,WeatherDisplay:10.36,2013-05-04 22:57:00,
2013-05-04 18:02:00,49.6,42.7,29.94,ENE,67,0.0,0.0,77,0.00,,,0.00,WeatherDisplay:10.36,2013-05-04 23:02:00,
2013-05-04 18:07:00,49.6,42.7,29.94,ENE,62,0.0,0.0,77,0.00,,,0.00,WeatherDisplay:10.36,2013-05-04 23:07:00,
2013-05-04 18:12:00,49.6,42.7,29.94,ENE,65,0.0,0.0,77,0.00,,,0.00,WeatherDisplay:10.36,2013-05-04 23:12:00,
2013-05-04 18:17:00,49.6,42.7,29.94,ENE,59,0.0,0.0,77,0.00,,,0.00,WeatherDisplay:10.36,2013-05-04 23:17:00,
2013-05-04 18:22:00,49.6,42.7,29.94,ENE,59,0.0,0.0,77,0.00,,,0.00,WeatherDisplay:10.36,2013-05-04 23:22:00,
2013-05-04 18:27:00,49.8,43.2,29.94,ENE,57,0.0,0.0,78,0.00,,,0.00,WeatherDisplay:10.36,2013-05-04 23:27:00,
2013-05-04 18:32:00,49.8,43.2,29.94,ENE,57,0.0,0.0,78,0.00,,,0.00,WeatherDisplay:10.36,2013-05-04 23:32:00,
2013-05-04 18:37:00,50.0,43.4,29.94,ENE,57,0.0,0.0,78,0.00,,,0.00,WeatherDisplay:10.36,2013-05-04 23:37:00,
2013-05-04 18:42:00,50.0,43.4,29.94,ENE,60,0.0,0.0,78,0.00,,,0.00,WeatherDisplay:10.36,2013-05-04 23:42:00,
2013-05-04 18:47:00,50.0,43.4,29.94,ENE,57,0.0,0.0,78,0.00,,,0.00,WeatherDisplay:10.36,2013-05-04 23:47:00,
2013-05-04 18:52:00,49.8,43.2,29.94,ENE,59,0.0,0.0,78,0.00,,,0.00,WeatherDisplay:10.36,2013-05-04 23:52:00,
2013-05-04 18:57:00,50.0,43.4,29.94,ENE,59,0.0,0.0,78,0.00,,,0.00,WeatherDisplay:10.36,2013-05-04 23:57:00,
2013-05-04 19:02:00,49.8,43.2,29.94,ENE,59,0.0,0.0,78,0.00,,,0.00,WeatherDisplay:10.36,2013-05-05 00:02:00,
2013-05-04 19:08:00,49.8,43.2,29.94,ENE,58,0.0,0.0,78,0.00,,,0.00,WeatherDisplay:10.36,2013-05-05 00:08:00,
2013-05-04 19:13:00,49.8,43.2,29.94,NE,56,0.0,0.0,78,0.00,,,0.00,WeatherDisplay:10.36,2013-05-05 00:13:00,
2013-05-04 19:18:00,49.6,43.1,29.94,ENE,59,0.0,0.0,78,0.00,,,0.00,WeatherDisplay:10.36,2013-05-05 00:18:00,
2013-05-04 19:23:00,49.5,42.9,29.94,ENE,59,0.0,0.0,78,0.00,,,0.00,WeatherDisplay:10.36,2013-05-05 00:23:00,
2013-05-04 19:28:00,49.5,42.9,29.94,NE,56,0.0,0.0,78,0.00,,,0.00,WeatherDisplay:10.36,2013-05-05 00:28:00,
2013-05-04 19:33:00,49.5,42.9,29.94,ENE,59,0.0,0.0,78,0.00,,,0.00,WeatherDisplay:10.36,2013-05-05 00:33:00,
2013-05-04 19:38:00,49.5,42.9,29.94,ENE,57,0.0,0.0,78,0.00,,,0.00,WeatherDisplay:10.36,2013-05-05 00:38:00,
2013-05-04 19:43:00,49.5,42.9,29.94,ENE,57,0.0,0.0,78,0.00,,,0.00,WeatherDisplay:10.36,2013-05-05 00:43:00,
2013-05-04 19:48:00,49.3,42.7,29.97,ENE,58,0.0,0.0,78,0.00,,,0.00,WeatherDisplay:10.36,2013-05-05 00:48:00,
2013-05-04 19:53:00,49.3,42.7,29.97,NE,54,0.0,0.0,78,0.00,,,0.00,WeatherDisplay:10.36,2013-05-05 00:53:00,
2013-05-04 19:58:00,49.1,42.5,29.97,ENE,58,0.0,0.0,78,0.00,,,0.00,WeatherDisplay:10.36,2013-05-05 00:58:00,
2013-05-04 20:03:00,49.1,42.9,29.97,NE,56,0.0,0.0,79,0.00,,,0.00,WeatherDisplay:10.36,2013-05-05 01:03:00,
2013-05-04 20:08:00,49.1,42.9,29.97,NE,55,0.0,0.0,79,0.00,,,0.00,WeatherDisplay:10.36,2013-05-05 01:08:00,
2013-05-04 20:13:00,49.1,42.9,29.97,ENE,58,0.0,0.0,79,0.00,,,0.00,WeatherDisplay:10.36,2013-05-05 01:13:00,
2013-05-04 20:18:00,49.1,42.9,29.97,ENE,57,0.0,0.0,79,0.00,,,0.00,WeatherDisplay:10.36,2013-05-05 01:18:00,
2013-05-04 20:23:00,49.1,42.9,29.97,ENE,57,0.0,0.0,79,0.00,,,0.00,WeatherDisplay:10.36,2013-05-05 01:23:00,
2013-05-04 20:28:00,49.1,42.9,29.97,ENE,57,0.0,0.0,79,0.00,,,0.00,WeatherDisplay:10.36,2013-05-05 01:28:00,
2013-05-04 20:33:00,49.1,42.9,29.97,ENE,57,0.0,0.0,79,0.00,,,0.00,WeatherDisplay:10.36,2013-05-05 01:33:00,
2013-05-04 20:38:00,48.9,42.7,29.97,NE,56,0.0,0.0,79,0.00,,,0.00,WeatherDisplay:10.36,2013-05-05 01:38:00,
2013-05-04 20:43:00,48.9,42.7,29.97,ENE,57,0.0,0.0,79,0.00,,,0.00,WeatherDisplay:10.36,2013-05-05 01:43:00,
2013-05-04 20:48:00,48.9,42.7,29.97,NE,54,0.0,0.0,79,0.00,,,0.00,WeatherDisplay:10.36,2013-05-05 01:48:00,
2013-05-04 20:53:00,48.9,43.0,29.97,NE,55,0.0,0.0,80,0.00,,,0.00,WeatherDisplay:10.36,2013-05-05 01:53:00,
2013-05-04 20:58:00,48.9,43.0,29.97,NE,55,0.0,0.0,80,0.00,,,0.00,WeatherDisplay:10.36,2013-05-05 01:58:00,
2013-05-04 21:03:00,48.9,43.0,30.00,NE,55,0.0,0.0,80,0.00,,,0.00,WeatherDisplay:10.36,2013-05-05 02:03:00,
2013-05-04 21:08:00,48.7,42.8,30.00,ENE,58,0.0,0.0,80,0.00,,,0.00,WeatherDisplay:10.36,2013-05-05 02:08:00,
2013-05-04 21:13:00,48.7,42.8,30.00,ENE,57,0.0,0.0,80,0.00,,,0.00,WeatherDisplay:10.36,2013-05-05 02:13:00,
2013-05-04 21:18:00,48.7,42.8,30.00,NE,55,0.0,0.0,80,0.00,,,0.00,WeatherDisplay:10.36,2013-05-05 02:18:00,
2013-05-04 21:23:00,48.7,42.8,30.00,NE,56,0.0,0.0,80,0.00,,,0.00,WeatherDisplay:10.36,2013-05-05 02:23:00,
2013-05-04 21:28:00,48.7,42.8,30.00,ENE,58,0.0,0.0,80,0.00,,,0.00,WeatherDisplay:10.36,2013-05-05 02:28:00,
2013-05-04 21:33:00,48.7,43.2,30.00,NE,56,0.0,0.0,81,0.00,,,0.00,WeatherDisplay:10.36,2013-05-05 02:33:00,
2013-05-04 21:38:00,48.7,43.2,30.00,NE,54,0.0,0.0,81,0.00,,,0.00,WeatherDisplay:10.36,2013-05-05 02:38:00,
2013-05-04 21:43:00,48.7,43.2,30.00,NE,56,0.0,0.0,81,0.00,,,0.00,WeatherDisplay:10.36,2013-05-05 02:43:00,
2013-05-04 21:48:00,48.6,43.0,30.00,ENE,57,0.0,0.0,81,0.00,,,0.00,WeatherDisplay:10.36,2013-05-05 02:48:00,
2013-05-04 21:53:00,48.6,43.0,30.00,NE,56,0.0,0.0,81,0.00,,,0.00,WeatherDisplay:10.36,2013-05-05 02:53:00,
2013-05-04 21:58:00,48.6,43.0,30.00,NE,55,0.0,0.0,81,0.00,,,0.00,WeatherDisplay:10.36,2013-05-05 02:58:00,
2013-05-04 22:03:00,48.4,42.8,30.00,NE,56,0.0,0.0,81,0.00,,,0.00,WeatherDisplay:10.36,2013-05-05 03:03:00,
2013-05-04 22:08:00,48.4,42.8,30.00,ENE,61,0.0,0.0,81,0.00,,,0.00,WeatherDisplay:10.36,2013-05-05 03:08:00,
2013-05-04 22:13:00,48.4,43.1,30.00,ENE,59,0.0,0.0,82,0.00,,,0.00,WeatherDisplay:10.36,2013-05-05 03:13:00,
2013-05-04 22:18:00,48.2,43.0,30.00,ENE,60,0.0,0.0,82,0.00,,,0.00,WeatherDisplay:10.36,2013-05-05 03:18:00,
2013-05-04 22:23:00,48.2,43.0,30.00,ENE,62,0.0,0.0,82,0.00,,,0.00,WeatherDisplay:10.36,2013-05-05 03:23:00,
2013-05-04 22:28:00,48.0,42.8,30.00,ENE,62,0.0,0.0,82,0.00,,,0.00,WeatherDisplay:10.36,2013-05-05 03:28:00,
2013-05-04 22:33:00,47.8,42.6,30.00,ENE,62,0.0,0.0,82,0.00,,,0.00,WeatherDisplay:10.36,2013-05-05 03:33:00,
2013-05-04 22:38:00,47.7,42.4,30.00,ENE,61,0.0,0.0,82,0.00,,,0.00,WeatherDisplay:10.36,2013-05-05 03:38:00,
2013-05-04 22:43:00,47.7,42.4,30.00,ENE,61,0.0,0.0,82,0.00,,,0.00,WeatherDisplay:10.36,2013-05-05 03:43:00,
2013-05-04 22:48:00,47.7,42.4,30.00,ENE,58,0.0,0.0,82,0.00,,,0.00,WeatherDisplay:10.36,2013-05-05 03:48:00,
2013-05-04 22:53:00,47.7,42.4,30.00,ENE,58,0.0,0.0,82,0.00,,,0.00,WeatherDisplay:10.36,2013-05-05 03:53:00,
2013-05-04 22:58:00,47.7,42.4,30.00,ENE,60,0.0,0.0,82,0.00,,,0.00,WeatherDisplay:10.36,2013-05-05 03:58:00,
2013-05-04 23:01:00,47.7,42.4,30.00,ENE,59,0.0,0.0,82,0.00,,,0.00,WeatherDisplay:10.36,2013-05-05 04:01:00,
2013-05-04 23:03:00,47.7,42.4,30.00,ENE,58,0.0,0.0,82,0.00,,,0.00,WeatherDisplay:10.36,2013-05-05 04:03:00,
2013-05-04 23:04:00,47.7,42.4,30.00,ENE,58,0.0,0.0,82,0.00,,,0.00,WeatherDisplay:10.36,2013-05-05 04:04:00,
2013-05-04 23:06:00,47.5,42.3,30.00,ENE,62,0.0,0.0,82,0.00,,,0.00,WeatherDisplay:10.36,2013-05-05 04:06:00,
2013-05-04 23:11:00,47.5,42.6,30.00,ENE,63,0.0,0.0,83,0.00,,,0.00,WeatherDisplay:10.36,2013-05-05 04:11:00,
2013-05-04 23:16:00,47.5,42.6,30.00,ENE,60,0.0,0.0,83,0.00,,,0.00,WeatherDisplay:10.36,2013-05-05 04:16:00,
2013-05-04 23:21:00,47.5,42.6,30.00,ENE,58,0.0,0.0,83,0.00,,,0.00,WeatherDisplay:10.36,2013-05-05 04:21:00,
2013-05-04 23:26:00,47.5,42.6,30.00,ENE,61,0.0,0.0,83,0.00,,,0.00,WeatherDisplay:10.36,2013-05-05 04:26:00,
2013-05-04 23:32:00,47.3,42.4,30.00,ENE,61,0.0,0.0,83,0.00,,,0.00,WeatherDisplay:10.36,2013-05-05 04:32:00,
2013-05-04 23:37:00,47.3,42.4,30.00,ENE,58,0.0,0.0,83,0.00,,,0.00,WeatherDisplay:10.36,2013-05-05 04:37:00,
2013-05-04 23:42:00,47.3,42.4,30.00,ENE,63,0.0,0.0,83,0.00,,,0.00,WeatherDisplay:10.36,2013-05-05 04:42:00,
2013-05-04 23:47:00,47.3,42.7,30.00,ENE,62,0.0,0.0,84,0.00,,,0.00,WeatherDisplay:10.36,2013-05-05 04:47:00,
2013-05-04 23:52:00,47.3,42.7,30.00,ENE,62,0.0,0.0,84,0.00,,,0.00,WeatherDisplay:10.36,2013-05-05 04:52:00,
2013-05-04 23:57:00,47.3,42.7,30.00,ENE,62,0.0,0.0,84,0.00,,,0.00,WeatherDisplay:10.36,2013-05-05 04:57:00,